Al Rawdah — V7VM8 — position and weather

sailwx.info

Track history (hours):
 
Tides and Currents Weather Stations Pressure Air Temp Water Temp Dewpoint Dewpoint Depression Visibility Wind Speed Wind Dir Waves Ship Positions

Al Rawdah

Last reported at 2014-Sep-16 12:06 UTC. Time now 2014-Sep-22 10:17 UTC.
Position N 36°00' E 015°39'.

Length 307 m; draft 12.7 m.

Type: Ship (hazmat cat A). MMSI: 538004160.

Date/timePositionNaut miles runAvg speedWind from/ knotsBaromVisibWave heightAir tempDewpointWater temp
2014-Sep-16 12:06N 36°00' E 015°39'5214.5
2014-Sep-16 08:33N 36°16' E 014°38'1514.7
2014-Sep-16 07:33N 36°20' E 014°21'1515.0
2014-Sep-16 06:33N 36°24' E 014°03'1515.0
2014-Sep-16 05:33N 36°29' E 013°45'1514.9
2014-Sep-16 04:33N 36°33' E 013°28'1514.7
2014-Sep-16 03:33N 36°38' E 013°10'1414.2
2014-Sep-16 02:33N 36°44' E 012°54'1414.1
2014-Sep-16 01:33N 36°54' E 012°42'1614.4
2014-Sep-16 00:26N 37°05' E 012°27'8614.4
2014-Sep-15 18:28N 37°43' E 010°50'1415.0
2014-Sep-15 17:33N 37°46' E 010°32'1515.0
2014-Sep-15 16:33N 37°49' E 010°14'1515.2
2014-Sep-15 15:34N 37°52' E 009°55'3115.3
2014-Sep-15 13:31N 37°59' E 009°17'1515.1
2014-Sep-15 12:33N 38°02' E 008°58'1515.4
2014-Sep-15 11:34N 38°04' E 008°39'1615.4
2014-Sep-15 10:32N 38°08' E 008°20'1514.8
2014-Sep-15 09:31N 38°11' E 008°01'1614.8
2014-Sep-15 08:26N 38°14' E 007°41'10515.2
2014-Sep-15 01:32N 38°36' E 005°30'9314.7
2014-Sep-14 19:13N 38°55' E 003°34'1014.6
2014-Sep-14 18:33N 38°58' E 003°22'1614.6
2014-Sep-14 17:25N 39°00' E 003°01'1314.3
2014-Sep-14 16:29N 39°03' E 002°44'1716.3
2014-Sep-14 15:27N 39°06' E 002°22'1112.3
2014-Sep-14 14:32N 39°09' E 002°08'1714.9
2014-Sep-14 13:24N 39°12' E 001°47'1714.7
2014-Sep-14 12:13N 39°14' E 001°24'1415.0
2014-Sep-14 11:16N 39°16' E 001°06'5814.7
2014-Sep-14 07:19N 39°24' W 000°08'911.5
2014-Sep-14 06:33N 39°26' W 000°19'1 0.6
2014-Sep-14 05:33N 39°27' W 000°19'0 0.1
2014-Sep-14 04:33N 39°27' W 000°19'0 0.0
2014-Sep-14 03:30N 39°27' W 000°19'0 0.0
2014-Sep-14 02:33N 39°27' W 000°19'0 0.0
2014-Sep-14 01:33N 39°27' W 000°19'0 0.0
2014-Sep-13 21:33N 39°27' W 000°19'0 0.0
2014-Sep-13 20:33N 39°27' W 000°19'0 0.0
2014-Sep-13 19:33N 39°27' W 000°19'0 0.0
2014-Sep-13 18:30N 39°27' W 000°19'0 0.0
2014-Sep-13 17:33N 39°27' W 000°19'0 0.1
2014-Sep-13 16:30N 39°27' W 000°19'0 0.0
2014-Sep-13 15:33N 39°27' W 000°19'0 0.0
2014-Sep-13 14:33N 39°27' W 000°19'0 0.0
2014-Sep-13 13:33N 39°27' W 000°19'0 0.0
2014-Sep-13 12:33N 39°27' W 000°19'0 0.0
2014-Sep-13 11:33N 39°27' W 000°19'0 0.1
2014-Sep-13 10:33N 39°27' W 000°19'4 4.1
2014-Sep-13 09:33N 39°26' W 000°14'1211.6
2014-Sep-13 08:33N 39°34' W 000°03'3114.7
2014-Sep-13 06:29N 39°56' E 000°25'1415.1
2014-Sep-13 05:33N 40°05' E 000°38'1615.5
2014-Sep-13 04:31N 40°16' E 000°54'1515.8
2014-Sep-13 03:33N 40°26' E 001°09'1615.9
2014-Sep-13 02:33N 40°37' E 001°24'1615.5
2014-Sep-13 01:33N 40°48' E 001°38'1515.1
2014-Sep-13 00:33N 40°59' E 001°52'1615.4
2014-Sep-12 23:31N 41°12' E 002°05'7 1.6
2014-Sep-12 19:09N 41°18' E 002°09'0 0.0
2014-Sep-12 15:27N 41°18' E 002°09'0 0.0
2014-Sep-12 14:21N 41°18' E 002°09'0 0.0
2014-Sep-12 12:33N 41°18' E 002°09'0 0.0
2014-Sep-12 11:33N 41°18' E 002°09'0 0.0
2014-Sep-12 10:33N 41°18' E 002°09'1 1.3
2014-Sep-12 09:33N 41°19' E 002°10'3 3.4
2014-Sep-12 08:33N 41°17' E 002°14'1211.6
2014-Sep-12 07:33N 41°22' E 002°28'1312.8
2014-Sep-12 06:33N 41°27' E 002°43'1615.5
2014-Sep-12 05:33N 41°35' E 003°01'1616.0
2014-Sep-12 04:33N 41°46' E 003°16'1716.5
2014-Sep-12 03:33N 41°59' E 003°31'3617.2
2014-Sep-12 01:29N 42°25' E 004°03'5117.2
2014-Sep-11 22:31N 43°03' E 004°49'1515.4
2014-Sep-11 21:34N 43°15' E 004°60'1110.7
2014-Sep-11 20:33N 43°24' E 004°52'1 0.8
2014-Sep-11 19:32N 43°25' E 004°51'0 0.0
2014-Sep-11 18:33N 43°25' E 004°51'0 0.0
2014-Sep-11 17:32N 43°25' E 004°51'0 0.0
2014-Sep-11 16:33N 43°25' E 004°51'0 0.0
2014-Sep-11 15:33N 43°25' E 004°51'0 0.0
2014-Sep-11 14:33N 43°25' E 004°51'0 0.0
2014-Sep-11 13:33N 43°25' E 004°51'0 0.0
2014-Sep-11 12:30N 43°25' E 004°51'0 0.0
2014-Sep-11 11:32N 43°25' E 004°51'0 0.0
2014-Sep-11 10:32N 43°25' E 004°51'0 0.0
2014-Sep-11 09:32N 43°25' E 004°51'0 0.1
2014-Sep-11 08:29N 43°25' E 004°51'0 0.0
2014-Sep-11 07:33N 43°25' E 004°51'0 0.0
2014-Sep-11 06:33N 43°25' E 004°51'0 0.0
2014-Sep-11 05:33N 43°25' E 004°51'0 0.0
2014-Sep-11 04:33N 43°25' E 004°51'0 0.0
2014-Sep-11 03:33N 43°25' E 004°51'0 0.0
2014-Sep-11 02:33N 43°25' E 004°51'0 0.1
2014-Sep-11 01:32N 43°25' E 004°51'0 0.0
2014-Sep-11 00:29N 43°25' E 004°51'0 0.0
2014-Sep-10 23:33N 43°25' E 004°51'0 0.0
2014-Sep-10 22:32N 43°25' E 004°51'0 0.0
2014-Sep-10 21:33N 43°25' E 004°51'0 0.0
2014-Sep-10 20:33N 43°25' E 004°51'0 0.0
2014-Sep-10 19:33N 43°25' E 004°51'0 0.0
2014-Sep-10 18:33N 43°25' E 004°51'0 0.0
2014-Sep-10 17:32N 43°25' E 004°51'0 0.0
2014-Sep-10 16:33N 43°25' E 004°51'0 0.0
2014-Sep-10 15:33N 43°25' E 004°51'1 1.3
2014-Sep-10 14:33N 43°24' E 004°52'10 9.6
2014-Sep-10 13:33N 43°17' E 005°01'1111.1
2014-Sep-10 12:33N 43°06' E 005°06'1212.4
2014-Sep-10 11:33N 42°55' E 005°11'1515.1
2014-Sep-10 10:33N 42°51' E 005°32'1716.5
2014-Sep-10 09:32N 42°51' E 005°55'1717.0
2014-Sep-10 08:33N 42°50' E 006°17'1616.4
2014-Sep-10 07:33N 42°56' E 006°38'1817.6
2014-Sep-10 06:33N 43°07' E 006°57'1817.9
2014-Sep-10 05:33N 43°18' E 007°16'6117.5
2014-Sep-10 02:03N 43°55' E 008°24'917.4
2014-Sep-10 01:31N 44°01' E 008°34'1616.7
2014-Sep-10 00:33N 44°12' E 008°50'1212.5
2014-Sep-09 23:33N 44°24' E 008°55'1 0.5
2014-Sep-09 22:29N 44°24' E 008°55'0 0.0
2014-Sep-09 21:32N 44°24' E 008°55'0 0.0
2014-Sep-09 20:32N 44°24' E 008°55'0 0.0
2014-Sep-09 19:32N 44°24' E 008°55'0 0.0
2014-Sep-09 18:29N 44°24' E 008°55'0 0.0
2014-Sep-09 17:29N 44°24' E 008°55'0 0.0
2014-Sep-09 16:32N 44°24' E 008°55'0 0.0
2014-Sep-09 15:32N 44°24' E 008°55'0 0.0
2014-Sep-09 14:29N 44°24' E 008°55'0 0.0
2014-Sep-09 13:32N 44°24' E 008°55'0 0.0
2014-Sep-09 12:32N 44°24' E 008°55'0 0.0
2014-Sep-09 11:29N 44°24' E 008°55'0 0.0
2014-Sep-09 10:29N 44°24' E 008°55'0 0.0
2014-Sep-09 09:29N 44°24' E 008°55'0 0.1
2014-Sep-09 08:29N 44°24' E 008°55'0 0.0
2014-Sep-09 07:29N 44°24' E 008°55'0 0.0
2014-Sep-09 06:26N 44°24' E 008°55'0 0.0
2014-Sep-09 05:17N 44°24' E 008°55'0 0.0
2014-Sep-09 04:29N 44°24' E 008°55'0 0.0
2014-Sep-09 03:29N 44°24' E 008°55'0 0.0
2014-Sep-09 02:32N 44°24' E 008°55'0 0.0
2014-Sep-09 01:29N 44°24' E 008°55'0 0.0
2014-Sep-09 00:29N 44°24' E 008°55'0 0.0
2014-Sep-08 23:32N 44°24' E 008°55'0 0.0
2014-Sep-08 22:29N 44°24' E 008°55'0 0.0
2014-Sep-08 21:29N 44°24' E 008°55'0 0.0
2014-Sep-08 20:29N 44°24' E 008°55'0 0.0
2014-Sep-08 19:23N 44°24' E 008°55'0 0.0
2014-Sep-08 18:29N 44°24' E 008°55'0 0.0
2014-Sep-08 17:29N 44°24' E 008°55'0 0.0
2014-Sep-08 16:33N 44°24' E 008°55'3 3.3
2014-Sep-08 15:33N 44°22' E 008°58'2 2.5
2014-Sep-08 14:33N 44°20' E 008°59'1312.8
2014-Sep-08 13:33N 44°10' E 009°12'1716.8
2014-Sep-08 12:33N 43°59' E 009°29'1514.8
2014-Sep-08 11:33N 43°59' E 009°49'7 7.1
2014-Sep-08 10:33N 44°06' E 009°51'0 0.0
2014-Sep-08 09:33N 44°06' E 009°51'0 0.0
2014-Sep-08 08:33N 44°06' E 009°51'0 0.0
2014-Sep-08 07:33N 44°06' E 009°51'0 0.0
2014-Sep-08 06:33N 44°06' E 009°51'0 0.0
2014-Sep-08 05:33N 44°06' E 009°51'0 0.1
2014-Sep-08 04:33N 44°06' E 009°51'0 0.0
2014-Sep-08 03:33N 44°06' E 009°51'0 0.0
2014-Sep-08 02:33N 44°06' E 009°51'0 0.0
2014-Sep-08 01:30N 44°06' E 009°51'0 0.0
2014-Sep-08 00:33N 44°06' E 009°51'0 0.0
2014-Sep-07 23:33N 44°06' E 009°51'0 0.0
2014-Sep-07 21:30N 44°06' E 009°51'0 0.0
2014-Sep-07 20:33N 44°06' E 009°51'0 0.0
2014-Sep-07 19:33N 44°06' E 009°51'0 0.0
2014-Sep-07 18:33N 44°06' E 009°51'0 0.0
2014-Sep-07 17:33N 44°06' E 009°51'0 0.0
2014-Sep-07 16:33N 44°06' E 009°51'0 0.0
2014-Sep-07 15:33N 44°06' E 009°51'0 0.0
2014-Sep-07 14:33N 44°06' E 009°51'0 0.0
2014-Sep-07 13:33N 44°06' E 009°51'0 0.0
2014-Sep-07 12:33N 44°06' E 009°51'0 0.0
2014-Sep-07 11:30N 44°06' E 009°51'0 0.0
2014-Sep-07 10:33N 44°06' E 009°51'0 0.1
2014-Sep-07 09:33N 44°07' E 009°51'0 0.1
2014-Sep-07 08:33N 44°06' E 009°51'0 0.0
2014-Sep-07 07:33N 44°06' E 009°51'0 0.0
2014-Sep-07 06:33N 44°06' E 009°51'2 2.5
2014-Sep-07 05:34N 44°04' E 009°51'8 7.7
2014-Sep-07 04:34N 43°59' E 009°60'1010.1
2014-Sep-07 03:33N 43°51' E 009°52'1514.9
2014-Sep-07 02:34N 43°38' E 009°40'1515.5
2014-Sep-07 01:34N 43°23' E 009°39'1515.3
2014-Sep-07 00:34N 43°08' E 009°39'1515.4
2014-Sep-06 23:33N 42°52' E 009°41'1515.1
2014-Sep-06 22:33N 42°38' E 009°47'1514.8
2014-Sep-06 21:34N 42°24' E 009°53'1514.8
2014-Sep-06 20:34N 42°12' E 010°05'1515.3
2014-Sep-06 19:33N 42°02' E 010°21'1816.7
2014-Sep-06 18:29N 41°51' E 010°39'  
Track history (hours):
 
Tides and Currents Weather Stations Pressure Air Temp Water Temp Dewpoint Dewpoint Depression Visibility Wind Speed Wind Dir Waves Ship Positions

Al Rawdah

Last reported at 2014-Sep-16 12:06 UTC. Time now 2014-Sep-22 10:17 UTC.
Position N 36°00' E 015°39'.

Length 307 m; draft 12.7 m.

Type: Ship (hazmat cat A). MMSI: 538004160.

Date/timePositionNaut miles runAvg speedWind from/ knotsBaromVisibWave heightAir tempDewpointWater temp
2014-Sep-16 12:06N 36°00' E 015°39'5214.5
2014-Sep-16 08:33N 36°16' E 014°38'1514.7
2014-Sep-16 07:33N 36°20' E 014°21'1515.0
2014-Sep-16 06:33N 36°24' E 014°03'1515.0
2014-Sep-16 05:33N 36°29' E 013°45'1514.9
2014-Sep-16 04:33N 36°33' E 013°28'1514.7
2014-Sep-16 03:33N 36°38' E 013°10'1414.2
2014-Sep-16 02:33N 36°44' E 012°54'1414.1
2014-Sep-16 01:33N 36°54' E 012°42'1614.4
2014-Sep-16 00:26N 37°05' E 012°27'8614.4
2014-Sep-15 18:28N 37°43' E 010°50'1415.0
2014-Sep-15 17:33N 37°46' E 010°32'1515.0
2014-Sep-15 16:33N 37°49' E 010°14'1515.2
2014-Sep-15 15:34N 37°52' E 009°55'3115.3
2014-Sep-15 13:31N 37°59' E 009°17'1515.1
2014-Sep-15 12:33N 38°02' E 008°58'1515.4
2014-Sep-15 11:34N 38°04' E 008°39'1615.4
2014-Sep-15 10:32N 38°08' E 008°20'1514.8
2014-Sep-15 09:31N 38°11' E 008°01'1614.8
2014-Sep-15 08:26N 38°14' E 007°41'10515.2
2014-Sep-15 01:32N 38°36' E 005°30'9314.7
2014-Sep-14 19:13N 38°55' E 003°34'1014.6
2014-Sep-14 18:33N 38°58' E 003°22'1614.6
2014-Sep-14 17:25N 39°00' E 003°01'1314.3
2014-Sep-14 16:29N 39°03' E 002°44'1716.3
2014-Sep-14 15:27N 39°06' E 002°22'1112.3
2014-Sep-14 14:32N 39°09' E 002°08'1714.9
2014-Sep-14 13:24N 39°12' E 001°47'1714.7
2014-Sep-14 12:13N 39°14' E 001°24'1415.0
2014-Sep-14 11:16N 39°16' E 001°06'5814.7
2014-Sep-14 07:19N 39°24' W 000°08'911.5
2014-Sep-14 06:33N 39°26' W 000°19'1 0.6
2014-Sep-14 05:33N 39°27' W 000°19'0 0.1
2014-Sep-14 04:33N 39°27' W 000°19'0 0.0
2014-Sep-14 03:30N 39°27' W 000°19'0 0.0
2014-Sep-14 02:33N 39°27' W 000°19'0 0.0
2014-Sep-14 01:33N 39°27' W 000°19'0 0.0
2014-Sep-13 21:33N 39°27' W 000°19'0 0.0
2014-Sep-13 20:33N 39°27' W 000°19'0 0.0
2014-Sep-13 19:33N 39°27' W 000°19'0 0.0
2014-Sep-13 18:30N 39°27' W 000°19'0 0.0
2014-Sep-13 17:33N 39°27' W 000°19'0 0.1
2014-Sep-13 16:30N 39°27' W 000°19'0 0.0
2014-Sep-13 15:33N 39°27' W 000°19'0 0.0
2014-Sep-13 14:33N 39°27' W 000°19'0 0.0
2014-Sep-13 13:33N 39°27' W 000°19'0 0.0
2014-Sep-13 12:33N 39°27' W 000°19'0 0.0
2014-Sep-13 11:33N 39°27' W 000°19'0 0.1
2014-Sep-13 10:33N 39°27' W 000°19'4 4.1
2014-Sep-13 09:33N 39°26' W 000°14'1211.6
2014-Sep-13 08:33N 39°34' W 000°03'3114.7
2014-Sep-13 06:29N 39°56' E 000°25'1415.1
2014-Sep-13 05:33N 40°05' E 000°38'1615.5
2014-Sep-13 04:31N 40°16' E 000°54'1515.8
2014-Sep-13 03:33N 40°26' E 001°09'1615.9
2014-Sep-13 02:33N 40°37' E 001°24'1615.5
2014-Sep-13 01:33N 40°48' E 001°38'1515.1
2014-Sep-13 00:33N 40°59' E 001°52'1615.4
2014-Sep-12 23:31N 41°12' E 002°05'7 1.6
2014-Sep-12 19:09N 41°18' E 002°09'0 0.0
2014-Sep-12 15:27N 41°18' E 002°09'0 0.0
2014-Sep-12 14:21N 41°18' E 002°09'0 0.0
2014-Sep-12 12:33N 41°18' E 002°09'0 0.0
2014-Sep-12 11:33N 41°18' E 002°09'0 0.0
2014-Sep-12 10:33N 41°18' E 002°09'1 1.3
2014-Sep-12 09:33N 41°19' E 002°10'3 3.4
2014-Sep-12 08:33N 41°17' E 002°14'1211.6
2014-Sep-12 07:33N 41°22' E 002°28'1312.8
2014-Sep-12 06:33N 41°27' E 002°43'1615.5
2014-Sep-12 05:33N 41°35' E 003°01'1616.0
2014-Sep-12 04:33N 41°46' E 003°16'1716.5
2014-Sep-12 03:33N 41°59' E 003°31'3617.2
2014-Sep-12 01:29N 42°25' E 004°03'5117.2
2014-Sep-11 22:31N 43°03' E 004°49'1515.4
2014-Sep-11 21:34N 43°15' E 004°60'1110.7
2014-Sep-11 20:33N 43°24' E 004°52'1 0.8
2014-Sep-11 19:32N 43°25' E 004°51'0 0.0
2014-Sep-11 18:33N 43°25' E 004°51'0 0.0
2014-Sep-11 17:32N 43°25' E 004°51'0 0.0
2014-Sep-11 16:33N 43°25' E 004°51'0 0.0
2014-Sep-11 15:33N 43°25' E 004°51'0 0.0
2014-Sep-11 14:33N 43°25' E 004°51'0 0.0
2014-Sep-11 13:33N 43°25' E 004°51'0 0.0
2014-Sep-11 12:30N 43°25' E 004°51'0 0.0
2014-Sep-11 11:32N 43°25' E 004°51'0 0.0
2014-Sep-11 10:32N 43°25' E 004°51'0 0.0
2014-Sep-11 09:32N 43°25' E 004°51'0 0.1
2014-Sep-11 08:29N 43°25' E 004°51'0 0.0
2014-Sep-11 07:33N 43°25' E 004°51'0 0.0
2014-Sep-11 06:33N 43°25' E 004°51'0 0.0
2014-Sep-11 05:33N 43°25' E 004°51'0 0.0
2014-Sep-11 04:33N 43°25' E 004°51'0 0.0
2014-Sep-11 03:33N 43°25' E 004°51'0 0.0
2014-Sep-11 02:33N 43°25' E 004°51'0 0.1
2014-Sep-11 01:32N 43°25' E 004°51'0 0.0
2014-Sep-11 00:29N 43°25' E 004°51'0 0.0
2014-Sep-10 23:33N 43°25' E 004°51'0 0.0
2014-Sep-10 22:32N 43°25' E 004°51'0 0.0
2014-Sep-10 21:33N 43°25' E 004°51'0 0.0
2014-Sep-10 20:33N 43°25' E 004°51'0 0.0
2014-Sep-10 19:33N 43°25' E 004°51'0 0.0
2014-Sep-10 18:33N 43°25' E 004°51'0 0.0
2014-Sep-10 17:32N 43°25' E 004°51'0 0.0
2014-Sep-10 16:33N 43°25' E 004°51'0 0.0
2014-Sep-10 15:33N 43°25' E 004°51'1 1.3
2014-Sep-10 14:33N 43°24' E 004°52'10 9.6
2014-Sep-10 13:33N 43°17' E 005°01'1111.1
2014-Sep-10 12:33N 43°06' E 005°06'1212.4
2014-Sep-10 11:33N 42°55' E 005°11'1515.1
2014-Sep-10 10:33N 42°51' E 005°32'1716.5
2014-Sep-10 09:32N 42°51' E 005°55'1717.0
2014-Sep-10 08:33N 42°50' E 006°17'1616.4
2014-Sep-10 07:33N 42°56' E 006°38'1817.6
2014-Sep-10 06:33N 43°07' E 006°57'1817.9
2014-Sep-10 05:33N 43°18' E 007°16'6117.5
2014-Sep-10 02:03N 43°55' E 008°24'917.4
2014-Sep-10 01:31N 44°01' E 008°34'1616.7
2014-Sep-10 00:33N 44°12' E 008°50'1212.5
2014-Sep-09 23:33N 44°24' E 008°55'1 0.5
2014-Sep-09 22:29N 44°24' E 008°55'0 0.0
2014-Sep-09 21:32N 44°24' E 008°55'0 0.0
2014-Sep-09 20:32N 44°24' E 008°55'0 0.0
2014-Sep-09 19:32N 44°24' E 008°55'0 0.0
2014-Sep-09 18:29N 44°24' E 008°55'0 0.0
2014-Sep-09 17:29N 44°24' E 008°55'0 0.0
2014-Sep-09 16:32N 44°24' E 008°55'0 0.0
2014-Sep-09 15:32N 44°24' E 008°55'0 0.0
2014-Sep-09 14:29N 44°24' E 008°55'0 0.0
2014-Sep-09 13:32N 44°24' E 008°55'0 0.0
2014-Sep-09 12:32N 44°24' E 008°55'0 0.0
2014-Sep-09 11:29N 44°24' E 008°55'0 0.0
2014-Sep-09 10:29N 44°24' E 008°55'0 0.0
2014-Sep-09 09:29N 44°24' E 008°55'0 0.1
2014-Sep-09 08:29N 44°24' E 008°55'0 0.0
2014-Sep-09 07:29N 44°24' E 008°55'0 0.0
2014-Sep-09 06:26N 44°24' E 008°55'0 0.0
2014-Sep-09 05:17N 44°24' E 008°55'0 0.0
2014-Sep-09 04:29N 44°24' E 008°55'0 0.0
2014-Sep-09 03:29N 44°24' E 008°55'0 0.0
2014-Sep-09 02:32N 44°24' E 008°55'0 0.0
2014-Sep-09 01:29N 44°24' E 008°55'0 0.0
2014-Sep-09 00:29N 44°24' E 008°55'0 0.0
2014-Sep-08 23:32N 44°24' E 008°55'0 0.0
2014-Sep-08 22:29N 44°24' E 008°55'0 0.0
2014-Sep-08 21:29N 44°24' E 008°55'0 0.0
2014-Sep-08 20:29N 44°24' E 008°55'0 0.0
2014-Sep-08 19:23N 44°24' E 008°55'0 0.0
2014-Sep-08 18:29N 44°24' E 008°55'0 0.0
2014-Sep-08 17:29N 44°24' E 008°55'0 0.0
2014-Sep-08 16:33N 44°24' E 008°55'3 3.3
2014-Sep-08 15:33N 44°22' E 008°58'2 2.5
2014-Sep-08 14:33N 44°20' E 008°59'1312.8
2014-Sep-08 13:33N 44°10' E 009°12'1716.8
2014-Sep-08 12:33N 43°59' E 009°29'1514.8
2014-Sep-08 11:33N 43°59' E 009°49'7 7.1
2014-Sep-08 10:33N 44°06' E 009°51'0 0.0
2014-Sep-08 09:33N 44°06' E 009°51'0 0.0
2014-Sep-08 08:33N 44°06' E 009°51'0 0.0
2014-Sep-08 07:33N 44°06' E 009°51'0 0.0
2014-Sep-08 06:33N 44°06' E 009°51'0 0.0
2014-Sep-08 05:33N 44°06' E 009°51'0 0.1
2014-Sep-08 04:33N 44°06' E 009°51'0 0.0
2014-Sep-08 03:33N 44°06' E 009°51'0 0.0
2014-Sep-08 02:33N 44°06' E 009°51'0 0.0
2014-Sep-08 01:30N 44°06' E 009°51'0 0.0
2014-Sep-08 00:33N 44°06' E 009°51'0 0.0
2014-Sep-07 23:33N 44°06' E 009°51'0 0.0
2014-Sep-07 21:30N 44°06' E 009°51'0 0.0
2014-Sep-07 20:33N 44°06' E 009°51'0 0.0
2014-Sep-07 19:33N 44°06' E 009°51'0 0.0
2014-Sep-07 18:33N 44°06' E 009°51'0 0.0
2014-Sep-07 17:33N 44°06' E 009°51'0 0.0
2014-Sep-07 16:33N 44°06' E 009°51'0 0.0
2014-Sep-07 15:33N 44°06' E 009°51'0 0.0
2014-Sep-07 14:33N 44°06' E 009°51'0 0.0
2014-Sep-07 13:33N 44°06' E 009°51'0 0.0
2014-Sep-07 12:33N 44°06' E 009°51'0 0.0
2014-Sep-07 11:30N 44°06' E 009°51'0 0.0
2014-Sep-07 10:33N 44°06' E 009°51'0 0.1
2014-Sep-07 09:33N 44°07' E 009°51'0 0.1
2014-Sep-07 08:33N 44°06' E 009°51'0 0.0
2014-Sep-07 07:33N 44°06' E 009°51'0 0.0
2014-Sep-07 06:33N 44°06' E 009°51'2 2.5
2014-Sep-07 05:34N 44°04' E 009°51'8 7.7
2014-Sep-07 04:34N 43°59' E 009°60'1010.1
2014-Sep-07 03:33N 43°51' E 009°52'1514.9
2014-Sep-07 02:34N 43°38' E 009°40'1515.5
2014-Sep-07 01:34N 43°23' E 009°39'1515.3
2014-Sep-07 00:34N 43°08' E 009°39'1515.4
2014-Sep-06 23:33N 42°52' E 009°41'1515.1
2014-Sep-06 22:33N 42°38' E 009°47'1514.8
2014-Sep-06 21:34N 42°24' E 009°53'1514.8
2014-Sep-06 20:34N 42°12' E 010°05'1515.3
2014-Sep-06 19:33N 42°02' E 010°21'1816.7
2014-Sep-06 18:29N 41°51' E 010°39'  

Dump ship's entire track history